Time;durP1;ratioP1;P1;durP2;ratioP2;P2;SDS_P1;SDS_P2;PMS_P1;PMS_P2;Temp;Humidity;BMP_temperature;BMP_pressure;BME280_temperature;BME280_humidity;BME280_pressure;Samples;Min_cycle;Max_cycle;Signal;HPM_P1;HPM_P2
2023/07/15 00:00:13;;;;;;;;;;;;;;;23.51;90.63;95349.78;5114442;28;1020;-56
2023/07/15 00:02:43;;;;;;;;;;;;;;;23.49;92.07;95355.47;5114333;28;1028;-56
2023/07/15 00:05:30;;;;;;;;;;;;;;;23.50;90.73;95359.84;5114240;28;1041;-56
2023/07/15 00:07:56;;;;;;;;;;;;;;;23.39;91.63;95366.13;5113888;28;1033;-56
2023/07/15 00:10:22;;;;;;;;;;;;;;;23.36;91.76;95366.63;5114325;28;1198;-56
2023/07/15 00:12:48;;;;;;;;;;;;;;;23.33;91.63;95375.25;5114174;28;1149;-56
2023/07/15 00:15:14;;;;;;;;;;;;;;;23.37;91.72;95374.56;5114193;28;981;-56
2023/07/15 00:17:41;;;;;;;;;;;;;;;23.39;91.46;95377.03;5114064;28;1901;-55
2023/07/15 00:23:38;;;;;;;;;;;;;;;23.54;90.22;95377.44;5114140;28;810;-55
2023/07/15 00:26:04;;;;;;;;;;;;;;;23.34;90.56;95371.47;5113748;28;1539;-55
2023/07/15 00:28:31;;;;;;;;;;;;;;;23.33;91.50;95365.16;5113852;28;1075;-55
2023/07/15 00:30:57;;;;;;;;;;;;;;;23.41;90.51;95368.63;5114226;28;1036;-56
2023/07/15 00:33:24;;;;;;;;;;;;;;;23.45;90.64;95370.66;5114076;28;1058;-56
2023/07/15 00:35:51;;;;;;;;;;;;;;;23.33;91.15;95370.63;5114000;28;2005;-56
2023/07/15 00:38:16;;;;;;;;;;;;;;;23.26;90.67;95367.19;5113973;28;1048;-55
2023/07/15 00:40:44;;;;;;;;;;;;;;;23.13;91.38;95370.16;5113876;28;1047;-55
2023/07/15 00:43:30;;;;;;;;;;;;;;;23.05;92.27;95371.31;5112675;28;1231;-55
2023/07/15 00:46:15;;;;;;;;;;;;;;;23.02;92.97;95377.19;5112986;28;965;-56
2023/07/15 00:48:45;;;;;;;;;;;;;;;22.76;92.44;95372.97;5113767;28;1088;-56
2023/07/15 00:51:11;;;;;;;;;;;;;;;22.48;94.51;95379.03;5113869;28;1063;-56
2023/07/15 00:53:37;;;;;;;;;;;;;;;22.33;95.70;95379.41;5113664;28;1049;-56
2023/07/15 00:56:04;;;;;;;;;;;;;;;22.27;96.12;95374.91;5113868;28;1909;-55
2023/07/15 00:58:30;;;;;;;;;;;;;;;22.27;96.42;95381.19;5113853;28;1043;-55
2023/07/15 01:00:56;;;;;;;;;;;;;;;22.51;94.84;95371.22;5112498;28;1053;-55
2023/07/15 01:03:22;;;;;;;;;;;;;;;22.63;94.45;95378.63;5113738;28;1043;-56
2023/07/15 01:05:48;;;;;;;;;;;;;;;22.60;94.36;95374.47;5113627;28;1052;-55
2023/07/15 01:08:14;;;;;;;;;;;;;;;22.64;94.16;95377.56;5113584;28;1104;-56
2023/07/15 01:10:40;;;;;;;;;;;;;;;22.57;94.08;95381.19;5112618;28;1005;-56
2023/07/15 01:13:06;;;;;;;;;;;;;;;22.50;94.35;95374.16;5113712;28;976;-56
2023/07/15 01:15:31;;;;;;;;;;;;;;;22.32;94.71;95378.59;5113562;28;1985;-56
2023/07/15 01:17:58;;;;;;;;;;;;;;;22.11;96.19;95381.78;5113616;28;981;-56
2023/07/15 01:20:25;;;;;;;;;;;;;;;21.97;97.04;95375.66;5116664;28;1015;-55
2023/07/15 01:22:51;;;;;;;;;;;;;;;21.97;97.10;95381.09;5116102;28;1043;-56
2023/07/15 01:25:17;;;;;;;;;;;;;;;22.15;95.93;95380.25;5116959;28;1557;-55
2023/07/15 01:27:43;;;;;;;;;;;;;;;22.27;95.22;95386.66;5117348;28;1012;-55
2023/07/15 01:30:09;;;;;;;;;;;;;;;22.33;94.88;95384.88;5116157;28;1044;-55
2023/07/15 01:32:35;;;;;;;;;;;;;;;22.33;94.76;95379.41;5117202;28;988;-56
2023/07/15 01:35:04;;;;;;;;;;;;;;;22.24;94.95;95378.88;5117220;28;1072;-56
2023/07/15 01:37:30;;;;;;;;;;;;;;;22.31;94.36;95382.41;5116874;28;1910;-55
2023/07/15 01:39:56;;;;;;;;;;;;;;;22.35;94.14;95378.16;5116924;28;1056;-55
2023/07/15 01:42:22;;;;;;;;;;;;;;;22.40;93.85;95378.31;5117110;28;957;-55
2023/07/15 01:44:49;;;;;;;;;;;;;;;22.33;94.48;95379.41;5116978;28;989;-56
2023/07/15 01:47:15;;;;;;;;;;;;;;;22.29;94.70;95384.53;5116932;28;980;-55
2023/07/15 01:49:42;;;;;;;;;;;;;;;22.26;94.61;95387.69;5116771;28;1008;-55
2023/07/15 01:52:08;;;;;;;;;;;;;;;22.13;95.17;95387.81;5116652;28;1111;-55
2023/07/15 01:54:35;;;;;;;;;;;;;;;22.03;95.00;95385.63;5116897;28;972;-55
2023/07/15 01:57:01;;;;;;;;;;;;;;;21.98;94.55;95386.28;5116757;28;1914;-55
2023/07/15 01:59:27;;;;;;;;;;;;;;;22.06;94.32;95389.78;5116576;28;1021;-55
2023/07/15 02:01:55;;;;;;;;;;;;;;;21.94;94.04;95384.28;5116624;28;989;-55
2023/07/15 02:04:21;;;;;;;;;;;;;;;21.64;96.41;95385.00;5116415;28;1108;-55
2023/07/15 02:06:47;;;;;;;;;;;;;;;21.51;98.02;95390.56;5116292;28;1048;-55
2023/07/15 02:09:14;;;;;;;;;;;;;;;21.61;97.45;95383.56;5116558;28;1008;-56
2023/07/15 02:11:40;;;;;;;;;;;;;;;21.59;97.39;95385.69;5116466;28;1047;-56
2023/07/15 02:14:08;;;;;;;;;;;;;;;21.82;95.95;95385.03;5116180;28;1057;-56
2023/07/15 02:16:34;;;;;;;;;;;;;;;21.79;96.02;95381.91;5116230;28;1993;-56
2023/07/15 02:19:00;;;;;;;;;;;;;;;21.71;96.20;95384.94;5116119;28;1120;-56
2023/07/15 02:21:26;;;;;;;;;;;;;;;21.68;95.93;95382.66;5115979;28;1178;-56
2023/07/15 02:23:52;;;;;;;;;;;;;;;21.50;97.15;95384.28;5116332;28;976;-56
2023/07/15 02:26:18;;;;;;;;;;;;;;;21.31;98.30;95385.28;5115902;28;1346;-56
2023/07/15 02:28:45;;;;;;;;;;;;;;;21.45;97.97;95395.00;5114941;28;1056;-56
2023/07/15 02:31:11;;;;;;;;;;;;;;;21.52;97.27;95395.78;5115803;28;1048;-56
2023/07/15 02:33:38;;;;;;;;;;;;;;;21.45;97.03;95389.56;5115899;28;1032;-56
2023/07/15 02:36:04;;;;;;;;;;;;;;;21.42;97.09;95396.25;5115751;28;1996;-56
2023/07/15 02:38:33;;;;;;;;;;;;;;;21.23;98.80;95392.66;5115995;28;1055;-55
2023/07/15 02:40:59;;;;;;;;;;;;;;;21.14;99.14;95393.97;5115624;28;1104;-55
2023/07/15 02:43:25;;;;;;;;;;;;;;;21.37;97.64;95403.44;5115792;28;993;-55
2023/07/15 02:45:51;;;;;;;;;;;;;;;21.47;96.88;95409.22;5115558;28;1029;-56
2023/07/15 02:48:19;;;;;;;;;;;;;;;21.57;96.81;95406.84;5115655;28;1036;-56
2023/07/15 02:50:54;;;;;;;;;;;;;;;21.58;96.78;95408.47;5115419;28;969;-56
2023/07/15 02:53:21;;;;;;;;;;;;;;;21.63;96.69;95418.72;5115564;28;1064;-56
2023/07/15 02:55:48;;;;;;;;;;;;;;;21.58;96.92;95423.97;5115476;28;1914;-56
2023/07/15 02:58:14;;;;;;;;;;;;;;;21.59;96.97;95426.50;5115489;28;961;-55
2023/07/15 03:00:41;;;;;;;;;;;;;;;21.57;96.88;95420.44;5115315;27;1223;-56
2023/07/15 03:03:07;;;;;;;;;;;;;;;21.41;96.10;95420.97;5115164;28;1076;-56
2023/07/15 03:05:34;;;;;;;;;;;;;;;21.31;97.01;95420.63;5115243;28;1080;-55
2023/07/15 03:08:00;;;;;;;;;;;;;;;21.08;97.41;95415.78;5115320;28;969;-56
2023/07/15 03:10:26;;;;;;;;;;;;;;;21.12;98.25;95415.13;5115121;28;1045;-55
2023/07/15 03:12:52;;;;;;;;;;;;;;;21.24;97.35;95412.53;5115211;28;1019;-56
2023/07/15 03:15:19;;;;;;;;;;;;;;;21.15;97.59;95416.56;5115062;28;1059;-55
2023/07/15 03:17:46;;;;;;;;;;;;;;;20.98;98.59;95421.69;5114906;28;1976;-56
2023/07/15 03:20:23;;;;;;;;;;;;;;;20.82;99.88;95420.34;5115189;28;1028;-56
2023/07/15 03:22:50;;;;;;;;;;;;;;;20.84;99.99;95412.81;5115102;28;1020;-56
2023/07/15 03:25:16;;;;;;;;;;;;;;;21.07;98.12;95425.81;5114729;28;1311;-56
2023/07/15 03:27:42;;;;;;;;;;;;;;;21.14;98.10;95426.63;5114882;28;917;-55
2023/07/15 03:30:09;;;;;;;;;;;;;;;21.33;96.87;95430.22;5114863;28;973;-55
2023/07/15 03:32:38;;;;;;;;;;;;;;;21.41;96.44;95429.13;5115035;28;1021;-56
2023/07/15 03:35:04;;;;;;;;;;;;;;;21.24;96.63;95424.22;5114951;28;1027;-56
2023/07/15 03:37:31;;;;;;;;;;;;;;;21.30;97.46;95418.97;5114754;28;1977;-56
2023/07/15 03:39:57;;;;;;;;;;;;;;;21.31;96.88;95429.63;5114724;28;1071;-56
2023/07/15 03:42:24;;;;;;;;;;;;;;;21.33;96.79;95426.69;5114095;28;1060;-56
2023/07/15 03:44:50;;;;;;;;;;;;;;;21.36;96.92;95421.63;5114582;28;965;-56
2023/07/15 03:47:16;;;;;;;;;;;;;;;21.20;97.13;95430.34;5114415;28;1041;-56
2023/07/15 03:49:45;;;;;;;;;;;;;;;21.19;97.86;95424.06;5114677;28;1373;-56
2023/07/15 03:52:10;;;;;;;;;;;;;;;21.36;97.80;95424.34;5114617;28;1039;-56
2023/07/15 03:54:36;;;;;;;;;;;;;;;21.46;96.64;95429.31;5114363;28;1019;-56
2023/07/15 03:57:02;;;;;;;;;;;;;;;21.28;97.39;95421.91;5114313;28;1898;-56
2023/07/15 03:59:29;;;;;;;;;;;;;;;21.40;97.24;95427.47;5114254;28;1033;-56
2023/07/15 04:01:55;;;;;;;;;;;;;;;21.38;97.89;95430.41;5114476;28;973;-56
2023/07/15 04:04:21;;;;;;;;;;;;;;;21.55;97.72;95433.44;5114432;28;1064;-56
2023/07/15 04:06:47;;;;;;;;;;;;;;;21.60;97.72;95439.03;5114230;28;1052;-56
2023/07/15 04:09:14;;;;;;;;;;;;;;;21.73;97.06;95439.97;5114310;28;1000;-56
2023/07/15 04:11:40;;;;;;;;;;;;;;;21.77;97.65;95442.00;5114270;28;1027;-56
2023/07/15 04:14:06;;;;;;;;;;;;;;;21.84;97.13;95441.94;5113001;28;1127;-56
2023/07/15 04:16:32;;;;;;;;;;;;;;;21.94;97.17;95447.69;5114341;28;1906;-55
2023/07/15 04:18:58;;;;;;;;;;;;;;;22.00;97.45;95446.78;5114008;28;1092;-56
2023/07/15 04:21:24;;;;;;;;;;;;;;;21.98;98.74;95462.53;5114222;28;969;-56
2023/07/15 04:23:52;;;;;;;;;;;;;;;22.17;97.47;95457.09;5114172;28;1023;-56
2023/07/15 04:26:22;;;;;;;;;;;;;;;22.45;94.42;95466.69;5113789;28;1627;-56
2023/07/15 04:28:49;;;;;;;;;;;;;;;22.60;91.37;95464.38;5113946;28;965;-56
2023/07/15 04:31:15;;;;;;;;;;;;;;;22.77;86.75;95465.41;5114124;28;972;-56
2023/07/15 04:33:43;;;;;;;;;;;;;;;22.91;87.33;95467.97;5114116;28;1031;-57
2023/07/15 04:36:09;;;;;;;;;;;;;;;23.07;86.83;95463.78;5113962;28;1897;-57
2023/07/15 04:38:35;;;;;;;;;;;;;;;23.21;82.74;95467.16;5113956;28;1009;-56
2023/07/15 04:41:01;;;;;;;;;;;;;;;23.25;82.98;95466.44;5113937;28;964;-57
2023/07/15 04:43:27;;;;;;;;;;;;;;;23.29;82.20;95481.28;5113734;28;997;-56
2023/07/15 04:45:53;;;;;;;;;;;;;;;23.44;81.83;95483.59;5113767;28;1072;-57
2023/07/15 04:48:19;;;;;;;;;;;;;;;23.65;82.62;95478.63;5114178;28;1171;-55
2023/07/15 04:50:46;;;;;;;;;;;;;;;23.78;81.14;95479.28;5113726;28;1049;-55
2023/07/15 04:53:12;;;;;;;;;;;;;;;23.63;81.15;95475.31;5115110;28;1039;-55
2023/07/15 04:55:39;;;;;;;;;;;;;;;23.59;83.49;95470.31;5117792;28;1982;-55
2023/07/15 04:58:05;;;;;;;;;;;;;;;23.74;83.17;95467.13;5117700;28;1031;-56
2023/07/15 05:00:31;;;;;;;;;;;;;;;23.78;81.83;95472.97;5117715;28;1065;-56
2023/07/15 05:02:57;;;;;;;;;;;;;;;24.03;81.23;95471.94;5117643;28;1029;-56
2023/07/15 05:05:23;;;;;;;;;;;;;;;24.00;81.05;95475.97;5117791;28;924;-56
2023/07/15 05:07:49;;;;;;;;;;;;;;;23.88;80.10;95473.22;5117771;28;1052;-56
2023/07/15 05:10:15;;;;;;;;;;;;;;;24.00;79.17;95472.41;5117634;28;969;-56
2023/07/15 05:12:41;;;;;;;;;;;;;;;24.15;78.67;95478.22;5117394;28;1127;-56
2023/07/15 05:15:08;;;;;;;;;;;;;;;24.00;79.33;95478.72;5117696;28;1072;-56
2023/07/15 05:17:34;;;;;;;;;;;;;;;24.10;77.80;95475.38;5116181;28;2000;-56
2023/07/15 05:20:00;;;;;;;;;;;;;;;24.18;79.29;95483.19;5117356;28;1052;-56
2023/07/15 05:22:26;;;;;;;;;;;;;;;24.24;79.57;95479.50;5117453;28;1011;-56
2023/07/15 05:24:52;;;;;;;;;;;;;;;24.37;78.14;95475.69;5115992;28;1621;-56
2023/07/15 05:27:18;;;;;;;;;;;;;;;24.43;78.94;95472.00;5116975;28;1278;-56
2023/07/15 05:29:44;;;;;;;;;;;;;;;24.50;77.26;95472.69;5117193;28;1036;-56
2023/07/15 05:32:10;;;;;;;;;;;;;;;24.58;78.72;95479.72;5117335;28;1028;-56
2023/07/15 05:34:37;;;;;;;;;;;;;;;24.69;78.41;95476.13;5117100;28;1123;-56
2023/07/15 05:37:03;;;;;;;;;;;;;;;24.67;78.96;95482.94;5117090;28;1909;-56
2023/07/15 05:39:29;;;;;;;;;;;;;;;24.70;78.37;95479.69;5116975;28;1216;-56
2023/07/15 05:41:55;;;;;;;;;;;;;;;24.98;77.04;95489.81;5116892;28;1099;-56
2023/07/15 05:44:21;;;;;;;;;;;;;;;25.22;76.19;95482.38;5117108;28;1008;-56
2023/07/15 05:46:47;;;;;;;;;;;;;;;25.29;76.12;95482.25;5116823;28;1025;-56
2023/07/15 05:49:13;;;;;;;;;;;;;;;25.46;76.27;95485.84;5116962;28;1019;-56
2023/07/15 05:51:39;;;;;;;;;;;;;;;25.50;76.11;95484.28;5116809;28;965;-56
2023/07/15 05:54:05;;;;;;;;;;;;;;;25.47;76.63;95489.41;5116788;28;1032;-56
2023/07/15 05:56:31;;;;;;;;;;;;;;;25.68;77.34;95491.41;5116463;28;1914;-56
2023/07/15 05:58:57;;;;;;;;;;;;;;;25.67;75.10;95488.94;5116600;28;1045;-56
2023/07/15 06:01:23;;;;;;;;;;;;;;;25.75;74.83;95485.78;5115347;28;1048;-56
2023/07/15 06:03:49;;;;;;;;;;;;;;;25.96;76.30;95489.72;5116429;28;1100;-56
2023/07/15 06:06:16;;;;;;;;;;;;;;;25.95;75.23;95482.56;5115850;28;1161;-56
2023/07/15 06:08:42;;;;;;;;;;;;;;;25.89;74.82;95487.09;5116576;28;1028;-56
2023/07/15 06:11:09;;;;;;;;;;;;;;;26.15;76.31;95495.75;5115197;28;975;-56
2023/07/15 06:13:35;;;;;;;;;;;;;;;26.30;72.47;95495.16;5116324;28;968;-56
2023/07/15 06:16:01;;;;;;;;;;;;;;;26.39;73.97;95501.03;5116426;28;1909;-56
2023/07/15 06:18:27;;;;;;;;;;;;;;;26.43;75.48;95491.25;5115238;28;956;-56
2023/07/15 06:20:53;;;;;;;;;;;;;;;26.58;74.21;95494.19;5116289;28;1024;-56
2023/07/15 06:23:19;;;;;;;;;;;;;;;26.86;73.83;95492.34;5116251;28;1016;-56
2023/07/15 06:25:45;;;;;;;;;;;;;;;26.87;72.86;95489.38;5114553;28;1311;-56
2023/07/15 06:28:11;;;;;;;;;;;;;;;26.92;73.83;95494.09;5115955;28;960;-56
2023/07/15 06:30:37;;;;;;;;;;;;;;;27.05;74.56;95493.72;5115000;28;1028;-56
2023/07/15 06:33:03;;;;;;;;;;;;;;;27.08;73.03;95495.91;5115938;28;1100;-56
2023/07/15 06:35:29;;;;;;;;;;;;;;;27.29;73.23;95490.69;5115914;28;1043;-56
2023/07/15 06:37:55;;;;;;;;;;;;;;;27.45;72.40;95483.44;5115356;28;1897;-57
2023/07/15 06:40:21;;;;;;;;;;;;;;;27.52;70.55;95480.50;5115210;28;1225;-56
2023/07/15 06:42:48;;;;;;;;;;;;;;;27.64;70.89;95483.88;5115711;28;1036;-56
2023/07/15 06:45:18;;;;;;;;;;;;;;;27.93;70.12;95480.88;5115673;28;1057;-57
2023/07/15 06:47:44;;;;;;;;;;;;;;;28.10;70.17;95478.00;5115636;28;1044;-57
2023/07/15 06:50:10;;;;;;;;;;;;;;;28.14;70.37;95476.38;5115750;28;1015;-57
2023/07/15 06:52:36;;;;;;;;;;;;;;;28.30;70.97;95475.34;5115355;27;972;-56
2023/07/15 06:55:02;;;;;;;;;;;;;;;28.43;69.66;95482.31;5115459;28;1990;-57
2023/07/15 06:57:28;;;;;;;;;;;;;;;28.37;69.37;95480.63;5115630;28;1988;-57
2023/07/15 06:59:54;;;;;;;;;;;;;;;28.42;70.00;95476.00;5115655;28;980;-57
2023/07/15 07:02:20;;;;;;;;;;;;;;;28.30;69.12;95471.78;5115288;28;1083;-57
2023/07/15 07:04:46;;;;;;;;;;;;;;;28.41;68.03;95479.00;5115423;28;1008;-57
2023/07/15 07:07:12;;;;;;;;;;;;;;;28.25;68.41;95478.09;5115225;28;1194;-57
2023/07/15 07:09:38;;;;;;;;;;;;;;;28.46;67.61;95478.19;5115253;28;1024;-57
2023/07/15 07:12:04;;;;;;;;;;;;;;;28.45;65.95;95482.06;5113935;28;1000;-57
2023/07/15 07:14:30;;;;;;;;;;;;;;;28.57;66.27;95480.78;5115299;28;967;-57
2023/07/15 07:16:56;;;;;;;;;;;;;;;28.81;65.64;95478.41;5114197;28;1902;-56
2023/07/15 07:19:22;;;;;;;;;;;;;;;28.67;63.79;95480.00;5114975;28;932;-57
2023/07/15 07:21:48;;;;;;;;;;;;;;;28.71;64.58;95478.38;5114882;28;1093;-57
2023/07/15 07:24:15;;;;;;;;;;;;;;;28.79;65.55;95475.09;5114898;28;1557;-57
2023/07/15 07:26:41;;;;;;;;;;;;;;;28.70;65.65;95473.94;5114548;28;1175;-57
2023/07/15 07:29:07;;;;;;;;;;;;;;;28.72;64.45;95476.44;5114724;28;1096;-57
2023/07/15 07:31:33;;;;;;;;;;;;;;;28.74;65.55;95475.09;5114912;28;992;-57
2023/07/15 07:33:59;;;;;;;;;;;;;;;28.92;66.53;95464.69;5114803;28;1005;-57
2023/07/15 07:36:25;;;;;;;;;;;;;;;28.95;64.25;95478.75;5114678;28;1910;-57
2023/07/15 07:38:51;;;;;;;;;;;;;;;29.08;64.11;95463.63;5114621;28;1033;-57
2023/07/15 07:41:17;;;;;;;;;;;;;;;29.55;63.28;95459.91;5114528;28;981;-55
2023/07/15 07:43:43;;;;;;;;;;;;;;;29.81;64.65;95468.25;5114712;28;997;-56
2023/07/15 07:46:10;;;;;;;;;;;;;;;29.86;63.36;95461.88;5114693;28;1044;-56
2023/07/15 07:48:36;;;;;;;;;;;;;;;29.84;63.45;95462.19;5114640;28;1040;-57
2023/07/15 07:51:02;;;;;;;;;;;;;;;29.92;61.44;95466.31;5114364;28;1032;-57
2023/07/15 07:53:29;;;;;;;;;;;;;;;30.11;61.12;95461.06;5114276;28;1084;-57
2023/07/15 07:55:55;;;;;;;;;;;;;;;30.14;63.87;95453.03;5114081;28;1905;-57
2023/07/15 07:58:21;;;;;;;;;;;;;;;30.11;62.99;95461.88;5114547;28;987;-56
2023/07/15 08:00:47;;;;;;;;;;;;;;;30.05;61.63;95463.00;5114369;28;1035;-56
2023/07/15 08:03:14;;;;;;;;;;;;;;;29.91;61.73;95457.22;5114295;28;1020;-56
2023/07/15 08:05:44;;;;;;;;;;;;;;;29.96;62.74;95457.22;5114055;28;1017;-57
2023/07/15 08:08:11;;;;;;;;;;;;;;;30.04;61.74;95463.28;5114114;28;1000;-57
2023/07/15 08:10:38;;;;;;;;;;;;;;;30.28;60.49;95460.75;5113997;28;1001;-57
2023/07/15 08:13:05;;;;;;;;;;;;;;;30.28;59.98;95460.75;5113961;28;1070;-56
2023/07/15 08:15:32;;;;;;;;;;;;;;;30.19;63.21;95470.72;5114089;28;1062;-57
2023/07/15 08:17:58;;;;;;;;;;;;;;;30.25;60.75;95462.13;5113999;28;1998;-56
2023/07/15 08:20:24;;;;;;;;;;;;;;;30.36;60.51;95463.81;5113888;28;1041;-56
2023/07/15 08:22:50;;;;;;;;;;;;;;;30.54;60.78;95461.53;5113999;28;1068;-57
2023/07/15 08:25:16;;;;;;;;;;;;;;;30.86;61.70;95463.09;5113908;28;1554;-56
2023/07/15 08:27:42;;;;;;;;;;;;;;;31.09;58.75;95472.69;5113727;28;1050;-56
2023/07/15 08:30:09;;;;;;;;;;;;;;;31.19;57.96;95471.81;5112953;28;1043;-56
2023/07/15 08:32:35;;;;;;;;;;;;;;;31.13;58.37;95455.28;5114047;28;1035;-56
2023/07/15 08:35:02;;;;;;;;;;;;;;;31.16;59.16;95472.41;5113918;28;1001;-56
2023/07/15 08:37:28;;;;;;;;;;;;;;;30.92;59.71;95460.09;5113656;28;1909;-56
2023/07/15 08:39:54;;;;;;;;;;;;;;;30.93;59.71;95464.47;5113139;28;1045;-56
2023/07/15 08:42:21;;;;;;;;;;;;;;;31.29;57.88;95460.72;5112889;28;1105;-56
2023/07/15 08:44:47;;;;;;;;;;;;;;;31.37;54.94;95460.09;5113951;28;1043;-56
2023/07/15 08:47:20;;;;;;;;;;;;;;;31.36;55.05;95461.25;5113862;28;1059;-57
2023/07/15 08:49:48;;;;;;;;;;;;;;;31.41;59.13;95455.66;5113681;28;1099;-56
2023/07/15 08:52:16;;;;;;;;;;;;;;;31.47;59.84;95454.56;5113635;28;1026;-56
2023/07/15 08:54:43;;;;;;;;;;;;;;;31.40;59.21;95458.69;5113945;28;1008;-56
2023/07/15 08:57:09;;;;;;;;;;;;;;;31.40;57.19;95450.41;5113588;28;1909;-56
2023/07/15 08:59:35;;;;;;;;;;;;;;;31.53;58.38;95449.84;5113755;28;1055;-56
2023/07/15 09:02:01;;;;;;;;;;;;;;;31.59;57.60;95443.16;5113571;28;1082;-56
2023/07/15 09:04:27;;;;;;;;;;;;;;;31.66;59.92;95449.19;5113574;28;1012;-56
2023/07/15 09:06:54;;;;;;;;;;;;;;;31.65;58.47;95442.00;5113445;28;1033;-56
2023/07/15 09:09:30;;;;;;;;;;;;;;;31.71;57.99;95451.88;5113815;28;968;-56
2023/07/15 09:11:59;;;;;;;;;;;;;;;31.63;58.33;95441.47;5113670;28;973;-56
2023/07/15 09:14:25;;;;;;;;;;;;;;;31.73;57.45;95440.53;5113422;28;916;-56
2023/07/15 09:16:55;;;;;;;;;;;;;;;31.86;56.96;95434.34;5113332;28;1991;-56
2023/07/15 09:19:22;;;;;;;;;;;;;;;31.95;57.10;95444.78;5113366;28;1039;-56
2023/07/15 09:21:52;;;;;;;;;;;;;;;31.91;56.59;95442.63;5113629;28;1015;-56
2023/07/15 09:24:18;;;;;;;;;;;;;;;32.00;57.88;95448.31;5113494;28;1251;-56
2023/07/15 09:26:48;;;;;;;;;;;;;;;31.70;59.02;95449.41;5113376;28;1261;-57
2023/07/15 09:29:14;;;;;;;;;;;;;;;31.59;58.67;95439.53;5113063;28;980;-56
2023/07/15 09:31:40;;;;;;;;;;;;;;;31.78;58.06;95431.38;5111088;28;2199;-56
2023/07/15 09:34:06;;;;;;;;;;;;;;;31.95;57.67;95428.19;5112844;28;1145;-56
2023/07/15 09:36:32;;;;;;;;;;;;;;;32.08;57.56;95433.06;5113125;28;2006;-56
2023/07/15 09:39:01;;;;;;;;;;;;;;;32.16;59.18;95428.88;5113150;28;1204;-56
2023/07/15 09:41:27;;;;;;;;;;;;;;;32.20;57.44;95429.94;5116061;28;992;-56
2023/07/15 09:43:53;;;;;;;;;;;;;;;32.24;58.35;95428.25;5116729;28;1016;-56
2023/07/15 09:46:21;;;;;;;;;;;;;;;32.33;58.28;95425.63;5116527;28;1060;-57
2023/07/15 09:48:48;;;;;;;;;;;;;;;32.25;56.81;95422.41;5116392;28;1223;-56
2023/07/15 09:51:15;;;;;;;;;;;;;;;32.20;59.04;95421.66;5116656;28;1015;-57
2023/07/15 09:53:51;;;;;;;;;;;;;;;31.97;59.18;95414.91;5116429;28;1025;-55
2023/07/15 09:56:17;;;;;;;;;;;;;;;31.96;56.95;95407.75;5116285;28;1913;-55
2023/07/15 09:58:46;;;;;;;;;;;;;;;32.23;59.62;95407.22;5116482;28;1081;-56
2023/07/15 10:01:21;;;;;;;;;;;;;;;32.30;59.21;95402.97;5116282;28;1047;-56
2023/07/15 10:04:01;;;;;;;;;;;;;;;32.32;57.88;95402.69;5116295;28;1261;-56
2023/07/15 10:06:28;;;;;;;;;;;;;;;32.43;59.19;95400.66;5116284;28;1240;-56
2023/07/15 10:08:54;;;;;;;;;;;;;;;32.37;58.18;95396.31;5116329;27;1027;-56
2023/07/15 10:11:21;;;;;;;;;;;;;;;32.39;59.66;95394.06;5116123;28;1032;-57
2023/07/15 10:13:47;;;;;;;;;;;;;;;32.39;57.62;95397.63;5115997;28;1040;-56
2023/07/15 10:16:14;;;;;;;;;;;;;;;32.37;59.50;95402.66;5114647;28;2002;-57
2023/07/15 10:18:40;;;;;;;;;;;;;;;32.33;59.83;95401.59;5116213;28;1141;-56
2023/07/15 10:21:09;;;;;;;;;;;;;;;32.30;56.74;95397.44;5115876;28;1021;-56
2023/07/15 10:23:35;;;;;;;;;;;;;;;32.28;56.15;95396.91;5115878;28;1031;-56
2023/07/15 10:26:05;;;;;;;;;;;;;;;32.27;59.48;95394.44;5115490;28;1326;-56
2023/07/15 10:28:35;;;;;;;;;;;;;;;32.49;59.15;95394.75;5115744;28;948;-56
2023/07/15 10:31:05;;;;;;;;;;;;;;;32.49;59.48;95386.44;5115770;28;987;-56
2023/07/15 10:33:31;;;;;;;;;;;;;;;32.59;56.81;95393.81;5115735;28;1107;-56
2023/07/15 10:35:57;;;;;;;;;;;;;;;32.49;60.27;95391.16;5115755;28;1910;-56
2023/07/15 10:38:31;;;;;;;;;;;;;;;32.69;58.44;95384.59;5115605;27;1219;-56
2023/07/15 10:41:02;;;;;;;;;;;;;;;32.85;58.58;95380.50;5115482;28;1096;-56
2023/07/15 10:43:34;;;;;;;;;;;;;;;32.89;59.48;95386.25;5115714;28;953;-56
2023/07/15 10:46:07;;;;;;;;;;;;;;;32.98;58.81;95383.66;5115589;28;993;-56
2023/07/15 10:48:34;;;;;;;;;;;;;;;32.86;58.64;95371.06;5115376;28;1131;-56
2023/07/15 10:51:02;;;;;;;;;;;;;;;33.02;56.98;95377.22;5114320;28;1021;-56
2023/07/15 10:53:29;;;;;;;;;;;;;;;33.04;57.84;95374.97;5115140;28;1051;-56
2023/07/15 10:55:59;;;;;;;;;;;;;;;32.94;58.14;95366.81;5115472;28;1991;-56
2023/07/15 10:58:26;;;;;;;;;;;;;;;32.97;59.25;95359.84;5115307;28;980;-56
2023/07/15 11:00:57;;;;;;;;;;;;;;;33.04;59.32;95363.88;5115100;28;1065;-56
2023/07/15 11:03:23;;;;;;;;;;;;;;;33.22;56.42;95366.97;5115091;28;1091;-56
2023/07/15 11:05:54;;;;;;;;;;;;;;;33.28;59.52;95364.97;5115090;28;1024;-56
2023/07/15 11:08:20;;;;;;;;;;;;;;;33.29;55.03;95356.34;5114928;27;1116;-56
2023/07/15 11:10:47;;;;;;;;;;;;;;;33.19;54.14;95349.03;5115259;28;965;-56
2023/07/15 11:13:14;;;;;;;;;;;;;;;33.32;57.10;95349.41;5114803;28;1080;-56
2023/07/15 11:15:40;;;;;;;;;;;;;;;33.33;56.72;95349.09;5115012;27;1047;-56
2023/07/15 11:18:13;;;;;;;;;;;;;;;33.38;58.31;95345.44;5114787;28;1909;-56
2023/07/15 11:20:39;;;;;;;;;;;;;;;33.31;57.16;95347.75;5115289;28;949;-56
2023/07/15 11:23:06;;;;;;;;;;;;;;;33.36;58.33;95342.13;5114977;28;1036;-56
2023/07/15 11:25:32;;;;;;;;;;;;;;;33.34;55.91;95338.84;5113189;28;1288;-56
2023/07/15 11:28:00;;;;;;;;;;;;;;;33.40;57.26;95337.63;5114717;28;1024;-56
2023/07/15 11:30:32;;;;;;;;;;;;;;;33.64;57.46;95332.81;5114664;28;983;-56
2023/07/15 11:32:58;;;;;;;;;;;;;;;33.68;56.70;95346.91;5114563;28;1041;-56
2023/07/15 11:35:25;;;;;;;;;;;;;;;33.58;55.64;95338.69;5114381;28;992;-56
2023/07/15 11:37:51;;;;;;;;;;;;;;;33.50;55.98;95333.88;5114363;28;1901;-56
2023/07/15 11:40:17;;;;;;;;;;;;;;;33.48;57.72;95333.34;5114367;28;1145;-56
2023/07/15 11:42:44;;;;;;;;;;;;;;;33.43;56.46;95334.25;5114351;28;1024;-56
2023/07/15 11:45:10;;;;;;;;;;;;;;;33.57;56.23;95328.75;5114294;28;1056;-56
2023/07/15 11:47:36;;;;;;;;;;;;;;;33.53;55.73;95322.19;5114324;28;1055;-56
2023/07/15 11:50:03;;;;;;;;;;;;;;;33.22;54.96;95329.03;5114142;28;1056;-56
2023/07/15 11:52:38;;;;;;;;;;;;;;;33.01;57.28;95320.19;5114086;28;1867;-56
2023/07/15 11:55:04;;;;;;;;;;;;;;;33.10;56.01;95323.09;5114285;28;1049;-56
2023/07/15 11:57:30;;;;;;;;;;;;;;;33.15;56.04;95316.69;5114080;28;1914;-56
2023/07/15 11:59:56;;;;;;;;;;;;;;;32.93;55.42;95325.56;5114186;28;1045;-56
2023/07/15 12:02:22;;;;;;;;;;;;;;;32.97;56.02;95308.06;5113722;28;984;-56
2023/07/15 12:04:49;;;;;;;;;;;;;;;33.21;57.34;95310.75;5113976;28;1116;-55
2023/07/15 12:07:19;;;;;;;;;;;;;;;33.39;56.22;95308.25;5114196;28;1040;-56
2023/07/15 12:09:45;;;;;;;;;;;;;;;33.44;58.14;95313.72;5114129;28;1044;-56
2023/07/15 12:12:11;;;;;;;;;;;;;;;33.31;54.50;95308.97;5113881;28;1103;-56
2023/07/15 12:14:37;;;;;;;;;;;;;;;33.51;56.14;95305.84;5113920;28;1076;-56
2023/07/15 12:17:04;;;;;;;;;;;;;;;33.74;55.85;95297.72;5113849;28;2271;-56
2023/07/15 12:19:32;;;;;;;;;;;;;;;33.79;54.90;95303.19;5114137;28;1376;-56
2023/07/15 12:21:58;;;;;;;;;;;;;;;33.81;53.40;95304.50;5113865;28;1138;-56
2023/07/15 12:24:24;;;;;;;;;;;;;;;33.87;53.04;95299.69;5113648;28;1314;-56
2023/07/15 12:26:50;;;;;;;;;;;;;;;34.00;54.09;95301.66;5092113;28;1239;-55
2023/07/15 12:29:16;;;;;;;;;;;;;;;34.23;53.96;95294.31;5093331;28;1045;-55
2023/07/15 12:31:43;;;;;;;;;;;;;;;34.39;52.42;95293.97;5093380;28;1139;-56
2023/07/15 12:34:09;;;;;;;;;;;;;;;34.17;53.46;95292.78;5092400;28;965;-56
2023/07/15 12:36:35;;;;;;;;;;;;;;;33.98;51.21;95290.06;5092364;28;1910;-56
2023/07/15 12:39:01;;;;;;;;;;;;;;;34.03;48.69;95281.66;5100393;28;1157;-55
2023/07/15 12:41:27;;;;;;;;;;;;;;;34.11;49.80;95276.50;5113624;28;1036;-55
2023/07/15 12:43:53;;;;;;;;;;;;;;;33.98;50.99;95272.59;5113808;28;1039;-55
2023/07/15 12:46:19;;;;;;;;;;;;;;;33.96;51.35;95269.28;5113518;28;1053;-56
2023/07/15 12:48:45;;;;;;;;;;;;;;;33.88;52.85;95267.25;5113698;28;1555;-56
2023/07/15 12:51:11;;;;;;;;;;;;;;;33.79;54.40;95262.41;5113732;28;1043;-56
2023/07/15 12:53:37;;;;;;;;;;;;;;;33.64;51.57;95263.50;5113572;28;1021;-56
2023/07/15 12:56:11;;;;;;;;;;;;;;;33.48;51.02;95259.34;5113624;28;1992;-56
2023/07/15 12:58:37;;;;;;;;;;;;;;;33.46;50.35;95258.81;5113684;28;1027;-56